Time;durP1;ratioP1;P1;durP2;ratioP2;P2;SDS_P1;SDS_P2;PMS_P1;PMS_P2;Temp;Humidity;BMP_temperature;BMP_pressure;BME280_temperature;BME280_humidity;BME280_pressure;Samples;Min_cycle;Max_cycle;Signal;HPM_P1;HPM_P2
2022/09/10 00:00:22;;;;;;;12.80;8.98;;;15.40;99.90;;;;;;3059832;19;20007;-70
2022/09/10 00:01:25;;;;;;;10.80;8.15;;;15.50;99.90;;;;;;3061479;19;20015;-70
2022/09/10 00:02:29;;;;;;;12.95;8.27;;;15.30;99.90;;;;;;3061551;19;20010;-70
2022/09/10 00:03:30;;;;;;;10.90;8.13;;;15.40;99.90;;;;;;3060442;19;20011;-70
2022/09/10 00:04:35;;;;;;;15.07;9.23;;;15.30;99.90;;;;;;3059968;19;20018;-70
2022/09/10 00:05:40;;;;;;;10.38;7.93;;;15.40;99.90;;;;;;3059516;19;20013;-70
2022/09/10 00:06:45;;;;;;;13.68;8.75;;;15.20;99.90;;;;;;3059023;19;20018;-71
2022/09/10 00:07:46;;;;;;;12.48;8.50;;;15.40;99.90;;;;;;3059430;19;20550;-70
2022/09/10 00:08:55;;;;;;;13.52;9.02;;;15.30;99.90;;;;;;3059694;19;20007;-70
2022/09/10 00:09:56;;;;;;;12.93;9.38;;;15.30;99.90;;;;;;3059825;19;20014;-70
2022/09/10 00:11:05;;;;;;;14.70;9.15;;;15.20;99.90;;;;;;3059438;19;20007;-70
2022/09/10 00:12:07;;;;;;;11.10;8.30;;;15.30;99.90;;;;;;3059404;19;20041;-70
2022/09/10 00:13:11;;;;;;;;;;;15.10;99.90;;;;;;3059996;19;20010;-70
2022/09/10 00:14:15;;;;;;;11.50;8.95;;;15.10;99.90;;;;;;3059821;19;19930;-70
2022/09/10 00:15:19;;;;;;;14.77;8.95;;;15.30;99.90;;;;;;3059351;19;20010;-70
2022/09/10 00:16:20;;;;;;;14.07;9.82;;;15.10;99.90;;;;;;3059267;19;20011;-70
2022/09/10 00:17:24;;;;;;;14.13;9.90;;;15.20;99.90;;;;;;3060008;19;20017;-70
2022/09/10 00:18:26;;;;;;;13.05;9.30;;;15.20;99.90;;;;;;3059647;19;20102;-70
2022/09/10 00:19:31;;;;;;;14.52;9.77;;;15.30;99.90;;;;;;3059401;19;20006;-70
2022/09/10 00:20:32;;;;;;;12.48;9.07;;;15.20;99.90;;;;;;3059523;19;20010;-71
2022/09/10 00:21:36;;;;;;;13.07;9.48;;;15.20;99.90;;;;;;3059248;19;20010;-70
2022/09/10 00:22:37;;;;;;;13.05;10.20;;;15.30;99.90;;;;;;3059751;19;20003;-70
2022/09/10 00:23:44;;;;;;;16.13;9.82;;;15.20;99.90;;;;;;3059388;19;20006;-70
2022/09/10 00:24:51;;;;;;;13.00;9.43;;;15.20;99.90;;;;;;3059361;19;20017;-70
2022/09/10 00:25:53;;;;;;;15.52;10.75;;;15.30;99.90;;;;;;3059509;19;20031;-71
2022/09/10 00:26:58;;;;;;;13.00;10.05;;;15.20;99.90;;;;;;3059841;19;20006;-70
2022/09/10 00:27:59;;;;;;;14.43;9.80;;;15.20;99.90;;;;;;3059660;19;20086;-70
2022/09/10 00:29:04;;;;;;;13.93;9.73;;;15.20;99.90;;;;;;3059545;19;20014;-70
2022/09/10 00:30:07;;;;;;;14.63;9.73;;;15.20;99.90;;;;;;3059559;19;20021;-70
2022/09/10 00:31:12;;;;;;;13.65;9.85;;;15.30;99.90;;;;;;3060291;19;20089;-70
2022/09/10 00:32:13;;;;;;;14.80;9.77;;;15.30;99.90;;;;;;3062152;19;20033;-70
2022/09/10 00:33:18;;;;;;;14.05;10.18;;;15.30;99.90;;;;;;3061328;19;20489;-70
2022/09/10 00:34:22;;;;;;;15.73;10.55;;;15.20;99.90;;;;;;3062138;19;20713;-70
2022/09/10 00:35:24;;;;;;;14.05;10.27;;;15.30;99.90;;;;;;3061508;19;20438;-71
2022/09/10 00:36:29;;;;;;;12.68;9.57;;;15.30;99.90;;;;;;3061254;19;20015;-70
2022/09/10 00:37:30;;;;;;;14.68;9.80;;;15.30;99.90;;;;;;3059706;19;19998;-70
2022/09/10 00:38:34;;;;;;;14.95;9.65;;;15.30;99.90;;;;;;3058280;19;20019;-70
2022/09/10 00:39:36;;;;;;;14.32;10.68;;;15.30;99.90;;;;;;3059359;19;20015;-71
2022/09/10 00:40:43;;;;;;;14.50;10.52;;;15.50;99.90;;;;;;3059357;19;20021;-70
2022/09/10 00:41:51;;;;;;;16.35;10.80;;;15.20;99.90;;;;;;3059463;19;20017;-70
2022/09/10 00:42:52;;;;;;;15.55;10.10;;;15.20;99.90;;;;;;3058742;19;20041;-71
2022/09/10 00:43:58;;;;;;;15.52;10.98;;;15.20;99.90;;;;;;3059330;19;20010;-70
2022/09/10 00:45:03;;;;;;;15.23;10.73;;;15.30;99.90;;;;;;3058445;19;20015;-70
2022/09/10 00:46:07;;;;;;;14.40;10.73;;;15.30;99.90;;;;;;3059328;19;19998;-70
2022/09/10 00:47:13;;;;;;;15.45;10.75;;;15.30;99.90;;;;;;3058245;19;20018;-70
2022/09/10 00:48:23;;;;;;;14.23;11.05;;;15.20;99.90;;;;;;3059167;19;20006;-70
2022/09/10 00:49:33;;;;;;;14.20;10.65;;;15.20;99.90;;;;;;3058933;19;20015;-71
2022/09/10 00:50:40;;;;;;;16.45;10.35;;;15.20;99.90;;;;;;3058926;19;20014;-71
2022/09/10 00:51:43;;;;;;;15.80;10.25;;;15.20;99.90;;;;;;3060664;19;20014;-70
2022/09/10 00:52:47;;;;;;;13.73;10.95;;;15.00;99.90;;;;;;3058908;19;20002;-70
2022/09/10 00:53:49;;;;;;;15.57;10.85;;;14.90;99.90;;;;;;3059092;19;19998;-70
2022/09/10 00:54:54;;;;;;;15.30;11.23;;;15.10;99.90;;;;;;3058975;19;20006;-71
2022/09/10 00:56:01;;;;;;;17.30;11.27;;;15.10;99.90;;;;;;3058767;19;20021;-70
2022/09/10 00:57:10;;;;;;;15.02;10.75;;;15.10;99.90;;;;;;3058768;19;20027;-71
2022/09/10 00:58:13;;;;;;;15.60;11.07;;;14.90;99.90;;;;;;3058838;19;20006;-70
2022/09/10 00:59:21;;;;;;;15.90;11.23;;;15.00;99.90;;;;;;3058886;19;20031;-70
2022/09/10 01:00:22;;;;;;;15.75;11.55;;;15.00;99.90;;;;;;3058446;19;20007;-71
2022/09/10 01:01:26;;;;;;;16.38;10.93;;;14.90;99.90;;;;;;3060512;19;20021;-70
2022/09/10 01:02:27;;;;;;;16.85;11.80;;;14.90;99.90;;;;;;3060988;19;20011;-70
2022/09/10 01:03:33;;;;;;;13.20;11.07;;;14.80;99.90;;;;;;3059688;19;20516;-70
2022/09/10 01:04:35;;;;;;;14.07;11.15;;;15.10;99.90;;;;;;3058749;19;20105;-70
2022/09/10 01:05:41;;;;;;;15.50;11.13;;;14.80;99.90;;;;;;3058625;19;20011;-71
2022/09/10 01:06:44;;;;;;;16.95;11.55;;;14.90;99.90;;;;;;3058471;19;20015;-70
2022/09/10 01:07:48;;;;;;;16.88;11.43;;;15.10;99.90;;;;;;3057421;19;20010;-70
2022/09/10 01:08:50;;;;;;;15.43;11.10;;;14.90;99.90;;;;;;3058912;19;20432;-70
2022/09/10 01:09:55;;;;;;;15.82;11.63;;;14.90;99.90;;;;;;3058448;19;20373;-70
2022/09/10 01:11:10;;;;;;;17.02;11.25;;;15.00;99.90;;;;;;3059117;19;20007;-70
2022/09/10 01:12:27;;;;;;;15.18;11.48;;;14.90;99.90;;;;;;3058479;19;20003;-70
2022/09/10 01:13:40;;;;;;;16.98;11.18;;;14.90;99.90;;;;;;3058801;19;20025;-70
2022/09/10 01:15:04;;;;;;;18.13;11.27;;;15.10;99.90;;;;;;3059002;19;20030;-71
2022/09/10 01:16:14;;;;;;;15.10;11.05;;;14.90;99.90;;;;;;3058506;19;20073;-70
2022/09/10 01:17:28;;;;;;;14.65;11.25;;;14.80;99.90;;;;;;3059554;19;20018;-70
2022/09/10 01:18:37;;;;;;;16.88;11.25;;;15.60;99.90;;;;;;3057912;19;20101;-70
2022/09/10 01:20:15;;;;;;;15.50;11.70;;;14.70;99.90;;;;;;3058614;19;20026;-70
2022/09/10 01:21:24;;;;;;;18.25;11.55;;;14.70;99.90;;;;;;3058822;19;20015;-70
2022/09/10 01:22:36;;;;;;;15.43;11.13;;;14.60;99.90;;;;;;3058256;19;20048;-70
2022/09/10 01:24:11;;;;;;;18.40;12.48;;;14.80;99.90;;;;;;3058536;19;20025;-70
2022/09/10 01:25:21;;;;;;;17.95;11.60;;;14.70;99.90;;;;;;3059733;19;20341;-70
2022/09/10 01:26:41;;;;;;;15.90;11.70;;;14.80;99.90;;;;;;3059360;19;20037;-70
2022/09/10 01:27:47;;;;;;;16.00;11.30;;;14.80;99.90;;;;;;3058551;19;20332;-70
2022/09/10 01:29:00;;;;;;;16.40;11.50;;;14.60;99.90;;;;;;3058288;19;20011;-70
2022/09/10 01:30:05;;;;;;;15.40;11.05;;;14.70;99.90;;;;;;3058547;19;20086;-71
2022/09/10 01:31:17;;;;;;;15.55;11.38;;;14.70;99.90;;;;;;3058355;19;20053;-70
2022/09/10 01:32:26;;;;;;;17.55;11.25;;;14.70;99.90;;;;;;3058235;19;20002;-70
2022/09/10 01:33:36;;;;;;;17.38;10.95;;;14.80;99.90;;;;;;3058601;19;20020;-70
2022/09/10 01:34:45;;;;;;;16.77;11.75;;;14.70;99.90;;;;;;3058251;19;20015;-70
2022/09/10 01:35:53;;;;;;;17.77;11.45;;;14.70;99.90;;;;;;3058335;19;20024;-71
2022/09/10 01:37:01;;;;;;;16.95;11.55;;;14.60;99.90;;;;;;3057278;19;20015;-70
2022/09/10 01:38:09;;;;;;;18.48;11.55;;;14.80;99.90;;;;;;3057671;19;20523;-70
2022/09/10 01:39:11;;;;;;;16.25;11.93;;;14.80;99.90;;;;;;3058208;19;20011;-70
2022/09/10 01:40:16;;;;;;;16.90;11.80;;;14.80;99.90;;;;;;3058285;19;20014;-71
2022/09/10 01:41:21;;;;;;;17.58;12.13;;;14.60;99.90;;;;;;3058064;19;20011;-70
2022/09/10 01:42:27;;;;;;;18.48;11.90;;;14.80;99.90;;;;;;3059726;19;20010;-70
2022/09/10 01:43:32;;;;;;;16.15;11.93;;;14.70;99.90;;;;;;3057972;19;20018;-70
2022/09/10 01:44:44;;;;;;;15.95;11.73;;;14.70;99.90;;;;;;3057769;19;20022;-70
2022/09/10 01:45:50;;;;;;;;;;;15.60;99.90;;;;;;3059123;19;20015;-70
2022/09/10 01:47:01;;;;;;;16.73;11.25;;;14.60;99.90;;;;;;3057899;19;19919;-70
2022/09/10 01:48:21;;;;;;;16.07;11.43;;;14.70;99.90;;;;;;3058742;19;20003;-70
2022/09/10 01:49:36;;;;;;;16.27;11.43;;;14.70;99.90;;;;;;3058197;19;20007;-70
2022/09/10 01:50:44;;;;;;;15.35;12.00;;;14.60;99.90;;;;;;3058543;19;20018;-71
2022/09/10 01:52:02;;;;;;;19.63;13.15;;;14.70;99.90;;;;;;3058226;19;20041;-70
2022/09/10 01:53:18;;;;;;;18.67;12.20;;;14.80;99.90;;;;;;3058515;19;20019;-71
2022/09/10 01:54:41;;;;;;;17.30;12.45;;;14.60;99.90;;;;;;3058538;19;20074;-71
2022/09/10 01:55:51;;;;;;;17.33;12.65;;;14.70;99.90;;;;;;3058154;19;20022;-71
2022/09/10 01:57:05;;;;;;;19.98;13.20;;;14.60;99.90;;;;;;3058712;19;20078;-71
2022/09/10 01:58:15;;;;;;;17.20;12.48;;;14.50;99.90;;;;;;3058191;19;20006;-70
2022/09/10 01:59:30;;;;;;;18.55;13.63;;;14.50;99.90;;;;;;3059406;19;20015;-70
2022/09/10 02:00:33;;;;;;;17.63;13.02;;;14.60;99.90;;;;;;3058482;19;19995;-71
2022/09/10 02:01:42;;;;;;;18.30;13.35;;;14.60;99.90;;;;;;3057965;19;20030;-70
2022/09/10 02:02:48;;;;;;;20.23;13.15;;;14.80;99.90;;;;;;3060078;19;20021;-70
2022/09/10 02:03:58;;;;;;;17.40;13.80;;;14.50;99.90;;;;;;3059607;19;20018;-71
2022/09/10 02:05:01;;;;;;;19.48;14.18;;;14.40;99.90;;;;;;3059632;19;20030;-71
2022/09/10 02:06:08;;;;;;;19.45;13.80;;;14.60;99.90;;;;;;3057661;19;20021;-70
2022/09/10 02:07:11;;;;;;;19.35;13.57;;;14.50;99.90;;;;;;3058322;19;20014;-70
2022/09/10 02:08:21;;;;;;;18.08;13.30;;;14.40;99.90;;;;;;3057860;19;20007;-70
2022/09/10 02:09:23;;;;;;;19.58;14.02;;;14.40;99.90;;;;;;3058131;19;20385;-70
2022/09/10 02:10:27;;;;;;;18.10;13.25;;;14.90;99.90;;;;;;3057816;19;20020;-70
2022/09/10 02:11:29;;;;;;;18.55;13.27;;;14.50;99.90;;;;;;3058105;19;20049;-71
2022/09/10 02:12:33;;;;;;;18.88;13.25;;;16.00;99.90;;;;;;3057967;19;20007;-70
2022/09/10 02:13:35;;;;;;;18.48;13.60;;;14.60;99.90;;;;;;3058246;19;20474;-70
2022/09/10 02:14:42;;;;;;;19.42;13.70;;;15.60;99.90;;;;;;3057666;19;20014;-70
2022/09/10 02:15:43;;;;;;;20.08;14.32;;;14.60;99.90;;;;;;3058955;19;20006;-70
2022/09/10 02:16:52;;;;;;;18.85;14.15;;;14.50;99.90;;;;;;3057556;19;20070;-70
2022/09/10 02:17:54;;;;;;;17.92;12.73;;;14.60;99.90;;;;;;3058036;19;20031;-71
2022/09/10 02:19:00;;;;;;;19.30;14.00;;;14.40;99.90;;;;;;3057386;19;20025;-71
2022/09/10 02:20:03;;;;;;;20.25;14.07;;;14.40;99.90;;;;;;3059272;19;20002;-71
2022/09/10 02:21:08;;;;;;;18.42;13.95;;;14.60;99.90;;;;;;3061262;19;20002;-70
2022/09/10 02:22:09;;;;;;;17.77;13.82;;;14.50;99.90;;;;;;3060920;19;20015;-71
2022/09/10 02:23:17;;;;;;;20.77;14.27;;;14.50;99.90;;;;;;3061185;19;20011;-71
2022/09/10 02:24:18;;;;;;;18.40;13.45;;;14.90;99.90;;;;;;3060763;19;20486;-70
2022/09/10 02:25:22;;;;;;;;;;;14.60;99.90;;;;;;3062774;19;20078;-70
2022/09/10 02:26:24;;;;;;;20.38;12.63;;;14.60;99.90;;;;;;3060834;19;19933;-70
2022/09/10 02:27:28;;;;;;;19.27;13.57;;;15.30;99.90;;;;;;3061160;19;20451;-70
2022/09/10 02:28:30;;;;;;;19.30;13.25;;;14.70;99.90;;;;;;3060611;19;20006;-71
2022/09/10 02:29:34;;;;;;;18.55;13.45;;;14.70;99.90;;;;;;3060904;19;20010;-70
2022/09/10 02:30:38;;;;;;;17.65;13.13;;;14.60;99.90;;;;;;3060804;19;20002;-70
2022/09/10 02:31:42;;;;;;;19.33;13.98;;;14.80;99.90;;;;;;3060903;19;20018;-70
2022/09/10 02:32:43;;;;;;;18.58;12.98;;;14.80;99.90;;;;;;3060984;19;20015;-70
2022/09/10 02:33:47;;;;;;;19.48;13.05;;;14.60;99.90;;;;;;3061049;19;20011;-71
2022/09/10 02:34:49;;;;;;;18.02;12.90;;;14.70;99.90;;;;;;3060608;19;20015;-71
2022/09/10 02:35:53;;;;;;;18.60;13.52;;;14.70;99.90;;;;;;3061013;19;20033;-70
2022/09/10 02:36:56;;;;;;;17.90;13.48;;;14.60;99.90;;;;;;3060443;19;20014;-70
2022/09/10 02:38:00;;;;;;;20.95;13.65;;;14.60;99.90;;;;;;3060814;19;20499;-70
2022/09/10 02:39:03;;;;;;;20.00;14.02;;;14.80;99.90;;;;;;3059670;19;20018;-70
2022/09/10 02:40:08;;;;;;;18.38;13.20;;;14.80;99.90;;;;;;3060970;19;20027;-70
2022/09/10 02:41:10;;;;;;;17.40;13.40;;;14.60;99.90;;;;;;3060466;19;20017;-70
2022/09/10 02:42:16;;;;;;;18.23;12.77;;;14.70;99.90;;;;;;3061015;19;20460;-71
2022/09/10 02:43:18;;;;;;;19.92;14.02;;;14.70;99.90;;;;;;3060413;19;20106;-70
2022/09/10 02:44:22;;;;;;;19.25;13.93;;;14.00;99.90;;;;;;3060604;19;20044;-70
2022/09/10 02:45:24;;;;;;;16.55;13.02;;;14.70;99.90;;;;;;3059247;19;20052;-70
2022/09/10 02:46:31;;;;;;;19.42;13.82;;;14.70;99.90;;;;;;3060072;19;20011;-70
2022/09/10 02:47:32;;;;;;;20.48;14.20;;;16.00;99.90;;;;;;3060393;19;20025;-70
2022/09/10 02:48:36;;;;;;;19.20;13.48;;;14.60;99.90;;;;;;3060750;19;20538;-70
2022/09/10 02:49:37;;;;;;;19.75;13.75;;;14.80;99.90;;;;;;3060115;19;20014;-70
2022/09/10 02:50:42;;;;;;;19.67;13.90;;;15.00;99.90;;;;;;3062522;19;20011;-70
2022/09/10 02:51:43;;;;;;;19.88;14.07;;;14.60;99.90;;;;;;3060303;19;20010;-70
2022/09/10 02:52:47;;;;;;;20.55;13.95;;;14.70;99.90;;;;;;3061096;19;20014;-70
2022/09/10 02:53:49;;;;;;;18.80;13.85;;;14.90;99.90;;;;;;3060440;19;20015;-70
2022/09/10 02:54:53;;;;;;;18.27;13.23;;;14.90;99.90;;;;;;3060397;19;20017;-70
2022/09/10 02:55:54;;;;;;;22.73;15.23;;;14.90;99.90;;;;;;3060343;19;20804;-70
2022/09/10 02:56:59;;;;;;;18.60;14.02;;;14.70;99.90;;;;;;3060928;19;20002;-70
2022/09/10 02:58:00;;;;;;;20.77;14.27;;;14.80;99.90;;;;;;3060413;19;20126;-71
2022/09/10 02:59:05;;;;;;;21.98;14.48;;;14.60;99.90;;;;;;3059959;19;20025;-70
2022/09/10 03:00:08;;;;;;;21.10;15.10;;;14.80;99.90;;;;;;3060263;19;20031;-70
2022/09/10 03:01:15;;;;;;;20.67;14.30;;;14.80;99.90;;;;;;3060525;19;20017;-70
2022/09/10 03:02:19;;;;;;;18.70;14.05;;;14.80;99.90;;;;;;3060442;19;20018;-70
2022/09/10 03:03:23;;;;;;;19.77;14.68;;;14.60;99.90;;;;;;3061039;19;20013;-71
2022/09/10 03:04:24;;;;;;;19.85;14.18;;;14.80;99.90;;;;;;3060256;19;20010;-70
2022/09/10 03:05:29;;;;;;;24.02;15.23;;;14.70;99.90;;;;;;3060574;19;20006;-70
2022/09/10 03:06:30;;;;;;;20.90;14.68;;;14.70;99.90;;;;;;3059557;19;20023;-70
2022/09/10 03:07:34;;;;;;;20.00;14.50;;;14.70;99.90;;;;;;3062053;19;20014;-70
2022/09/10 03:08:35;;;;;;;24.45;15.02;;;14.60;99.90;;;;;;3060443;19;20109;-70
2022/09/10 03:09:40;;;;;;;22.27;14.45;;;14.70;99.90;;;;;;3060640;19;20015;-70
2022/09/10 03:10:41;;;;;;;20.63;14.73;;;14.80;99.90;;;;;;3060153;19;20021;-70
2022/09/10 03:11:45;;;;;;;22.60;15.50;;;14.90;99.90;;;;;;3060255;19;20018;-70
2022/09/10 03:12:46;;;;;;;23.40;14.60;;;14.80;99.90;;;;;;3060225;19;20018;-70
2022/09/10 03:13:50;;;;;;;21.38;14.55;;;14.70;99.90;;;;;;3060689;19;19995;-70
2022/09/10 03:14:52;;;;;;;22.90;15.15;;;14.90;99.90;;;;;;3060097;19;20017;-70
2022/09/10 03:15:57;;;;;;;21.02;14.45;;;14.70;99.90;;;;;;3060242;19;20014;-71
2022/09/10 03:16:59;;;;;;;22.15;14.60;;;14.80;99.90;;;;;;3059767;19;20014;-70
2022/09/10 03:18:05;;;;;;;21.70;15.68;;;15.70;99.90;;;;;;3060453;19;20009;-70
2022/09/10 03:19:07;;;;;;;19.83;14.38;;;15.00;99.90;;;;;;3059608;19;20007;-70
2022/09/10 03:20:12;;;;;;;19.67;13.98;;;14.90;99.90;;;;;;3060434;19;20027;-70
2022/09/10 03:21:17;;;;;;;20.40;13.98;;;14.90;99.90;;;;;;3060142;19;20535;-70
2022/09/10 03:22:21;;;;;;;20.65;14.73;;;14.90;99.90;;;;;;3060331;19;20018;-70
2022/09/10 03:23:22;;;;;;;19.23;14.43;;;14.80;99.90;;;;;;3060152;19;20014;-70
2022/09/10 03:24:27;;;;;;;21.65;14.00;;;14.80;99.90;;;;;;3061088;19;20018;-70
2022/09/10 03:25:28;;;;;;;19.13;13.77;;;15.00;99.90;;;;;;3061190;19;20479;-70
2022/09/10 03:26:32;;;;;;;20.67;14.43;;;15.70;99.90;;;;;;3060332;19;20032;-70
2022/09/10 03:27:33;;;;;;;22.50;14.57;;;14.80;99.90;;;;;;3060051;19;20698;-70
2022/09/10 03:28:39;;;;;;;21.77;14.20;;;14.80;99.90;;;;;;3060348;19;20010;-70
2022/09/10 03:29:40;;;;;;;19.83;14.02;;;15.20;99.90;;;;;;3059806;19;20490;-70
2022/09/10 03:30:44;;;;;;;21.85;14.35;;;14.90;99.90;;;;;;3059428;19;20006;-70
2022/09/10 03:31:45;;;;;;;19.60;13.93;;;14.90;99.90;;;;;;3060220;19;20686;-70
2022/09/10 03:32:49;;;;;;;22.10;15.20;;;15.00;99.90;;;;;;3060302;19;20351;-71
2022/09/10 03:33:53;;;;;;;21.27;15.23;;;15.00;99.90;;;;;;3059688;19;20022;-70
2022/09/10 03:34:58;;;;;;;22.30;14.48;;;15.00;99.90;;;;;;3060021;19;20014;-70
2022/09/10 03:36:00;;;;;;;21.95;14.82;;;14.90;99.90;;;;;;3059798;19;20833;-70
2022/09/10 03:37:04;;;;;;;20.90;14.52;;;15.00;99.90;;;;;;3060255;19;20006;-70
2022/09/10 03:38:06;;;;;;;23.23;15.07;;;15.20;99.90;;;;;;3059628;19;20006;-70
2022/09/10 03:39:10;;;;;;;21.02;14.63;;;15.00;99.90;;;;;;3059721;19;20026;-70
2022/09/10 03:40:11;;;;;;;21.95;14.88;;;15.10;99.90;;;;;;3059709;19;20014;-70
2022/09/10 03:41:15;;;;;;;20.40;14.13;;;15.00;99.90;;;;;;3060898;19;20011;-70
2022/09/10 03:42:16;;;;;;;22.15;14.23;;;15.30;99.90;;;;;;3059755;19;20360;-70
2022/09/10 03:43:21;;;;;;;22.80;14.70;;;15.10;99.90;;;;;;3059864;19;20011;-70
2022/09/10 03:44:22;;;;;;;21.08;14.63;;;15.20;99.90;;;;;;3059571;19;20471;-70
2022/09/10 03:45:27;;;;;;;21.80;14.05;;;15.00;99.90;;;;;;3059858;19;20018;-71
2022/09/10 03:46:28;;;;;;;22.02;14.43;;;15.10;99.90;;;;;;3059274;19;20010;-70
2022/09/10 03:47:32;;;;;;;22.77;13.95;;;15.10;99.90;;;;;;3059958;19;20089;-70
2022/09/10 03:48:33;;;;;;;20.80;14.48;;;15.10;99.90;;;;;;3060121;19;20356;-70
2022/09/10 03:49:40;;;;;;;20.80;14.27;;;15.00;99.90;;;;;;3059732;19;20006;-71
2022/09/10 03:50:42;;;;;;;23.30;15.35;;;14.90;99.90;;;;;;3060108;19;20029;-70
2022/09/10 03:51:47;;;;;;;21.35;14.32;;;15.20;99.90;;;;;;3059749;19;20006;-70
2022/09/10 03:52:48;;;;;;;20.48;14.60;;;15.20;99.90;;;;;;3060563;19;20014;-70
2022/09/10 03:53:52;;;;;;;21.40;14.02;;;15.00;99.90;;;;;;3061715;19;20458;-71
2022/09/10 03:54:54;;;;;;;27.02;14.88;;;15.00;99.90;;;;;;3061819;19;20028;-72
2022/09/10 03:55:58;;;;;;;22.77;14.40;;;15.20;99.90;;;;;;3061341;19;20018;-70
2022/09/10 03:57:02;;;;;;;22.58;14.38;;;15.00;99.90;;;;;;3061726;19;20470;-70
2022/09/10 03:58:06;;;;;;;25.38;15.65;;;14.90;99.90;;;;;;3061394;19;20014;-71
2022/09/10 03:59:12;;;;;;;22.95;15.40;;;15.00;99.90;;;;;;3060061;19;20078;-70
2022/09/10 04:00:14;;;;;;;22.30;15.57;;;15.00;99.90;;;;;;3059469;19;20015;-71
2022/09/10 04:01:18;;;;;;;21.33;15.00;;;15.10;99.90;;;;;;3060223;19;20003;-70
2022/09/10 04:02:19;;;;;;;23.63;16.13;;;15.10;99.90;;;;;;3060074;19;20026;-70
2022/09/10 04:03:23;;;;;;;22.10;15.55;;;15.00;99.90;;;;;;3060896;19;20367;-71
2022/09/10 04:04:24;;;;;;;21.23;15.10;;;14.90;99.90;;;;;;3059593;19;20021;-71
2022/09/10 04:05:32;;;;;;;24.95;15.77;;;15.10;99.90;;;;;;3059773;19;20702;-71
2022/09/10 04:06:34;;;;;;;23.65;15.57;;;14.90;99.90;;;;;;3058967;19;20356;-70
2022/09/10 04:07:38;;;;;;;24.40;15.43;;;15.00;99.90;;;;;;3059896;19;20467;-71
2022/09/10 04:08:39;;;;;;;21.10;14.80;;;15.00;99.90;;;;;;3059086;19;20010;-71
2022/09/10 04:09:43;;;;;;;22.75;15.43;;;15.20;99.90;;;;;;3059888;19;20006;-71
2022/09/10 04:10:45;;;;;;;22.63;15.48;;;15.00;99.90;;;;;;3059626;19;20023;-70
2022/09/10 04:11:49;;;;;;;23.80;15.35;;;15.10;99.90;;;;;;3059739;19;20007;-71
2022/09/10 04:12:52;;;;;;;22.05;14.95;;;14.90;99.90;;;;;;3060181;19;20007;-70
2022/09/10 04:13:56;;;;;;;25.25;15.25;;;14.80;99.90;;;;;;3058837;19;20387;-70
2022/09/10 04:14:57;;;;;;;26.55;15.77;;;15.00;99.90;;;;;;3058957;19;20612;-70
2022/09/10 04:16:02;;;;;;;;;;;15.10;99.90;;;;;;3060547;19;20003;-70
2022/09/10 04:17:04;;;;;;;20.52;15.23;;;15.10;99.90;;;;;;3058978;19;19930;-71
2022/09/10 04:18:10;;;;;;;23.92;16.17;;;14.90;99.90;;;;;;3059545;19;20013;-70
2022/09/10 04:19:11;;;;;;;21.25;14.85;;;15.10;99.90;;;;;;3059043;19;20018;-71
2022/09/10 04:20:15;;;;;;;21.65;15.00;;;14.90;99.90;;;;;;3059681;19;20006;-71
2022/09/10 04:21:19;;;;;;;26.33;15.98;;;15.00;99.90;;;;;;3059428;19;20358;-70
2022/09/10 04:22:23;;;;;;;20.45;14.40;;;15.00;99.90;;;;;;3059536;19;20033;-70
2022/09/10 04:23:24;;;;;;;23.73;15.50;;;14.90;99.90;;;;;;3059403;19;20006;-71
2022/09/10 04:24:28;;;;;;;21.05;15.05;;;15.00;99.90;;;;;;3060988;19;20019;-71
2022/09/10 04:25:29;;;;;;;23.00;15.73;;;15.00;99.90;;;;;;3059004;19;20035;-70
2022/09/10 04:26:33;;;;;;;22.40;14.98;;;14.90;99.90;;;;;;3059320;19;20360;-70
2022/09/10 04:27:35;;;;;;;19.63;14.88;;;15.10;99.90;;;;;;3059332;19;20020;-71
2022/09/10 04:28:39;;;;;;;25.27;15.52;;;15.20;99.90;;;;;;3059695;19;20021;-70
2022/09/10 04:29:41;;;;;;;23.40;15.02;;;15.10;99.90;;;;;;3059261;19;20094;-70
2022/09/10 04:30:46;;;;;;;21.77;14.77;;;15.00;99.90;;;;;;3059484;19;20011;-70
2022/09/10 04:31:49;;;;;;;23.27;15.52;;;15.00;99.90;;;;;;3059233;19;20013;-71
2022/09/10 04:32:54;;;;;;;25.27;15.18;;;15.10;99.90;;;;;;3059573;19;20471;-70
2022/09/10 04:33:55;;;;;;;22.58;15.60;;;14.90;99.90;;;;;;3059165;19;20011;-71
2022/09/10 04:35:01;;;;;;;23.45;15.75;;;15.10;99.90;;;;;;3059197;19;20021;-70
2022/09/10 04:36:04;;;;;;;25.42;16.00;;;15.30;99.90;;;;;;3059050;19;20026;-70
2022/09/10 04:37:10;;;;;;;22.65;15.20;;;15.20;99.90;;;;;;3059487;19;20010;-70
2022/09/10 04:38:11;;;;;;;26.35;15.15;;;15.10;99.90;;;;;;3059114;19;20007;-71
2022/09/10 04:39:16;;;;;;;22.75;15.43;;;15.00;99.90;;;;;;3058993;19;20010;-71
2022/09/10 04:40:18;;;;;;;22.23;14.25;;;15.20;99.90;;;;;;3058850;19;20018;-71
2022/09/10 04:41:22;;;;;;;20.98;14.85;;;15.40;99.90;;;;;;3059531;19;20010;-71
2022/09/10 04:42:23;;;;;;;21.83;15.40;;;15.90;99.90;;;;;;3057736;19;20361;-70
2022/09/10 04:43:27;;;;;;;23.45;15.43;;;15.20;99.90;;;;;;3058809;19;19998;-70
2022/09/10 04:44:31;;;;;;;24.45;15.20;;;15.10;99.90;;;;;;3058741;19;20010;-70
2022/09/10 04:45:35;;;;;;;21.00;15.27;;;15.20;99.90;;;;;;3059466;19;20016;-71
2022/09/10 04:46:37;;;;;;;22.92;15.82;;;15.20;99.90;;;;;;3058566;19;20021;-71
2022/09/10 04:47:41;;;;;;;22.77;14.95;;;15.10;99.90;;;;;;3059342;19;20007;-71
2022/09/10 04:48:42;;;;;;;24.85;16.17;;;15.20;99.90;;;;;;3058704;19;20010;-70
2022/09/10 04:49:46;;;;;;;23.90;16.42;;;15.30;99.90;;;;;;3061048;19;20014;-70
2022/09/10 04:50:47;;;;;;;23.88;15.68;;;15.10;99.90;;;;;;3059071;19;20490;-71
2022/09/10 04:51:51;;;;;;;20.63;14.27;;;15.20;99.90;;;;;;3059470;19;20021;-71
2022/09/10 04:52:55;;;;;;;23.48;15.98;;;15.20;99.90;;;;;;3058919;19;20010;-70
2022/09/10 04:54:00;;;;;;;23.88;15.60;;;15.20;99.90;;;;;;3059181;19;19999;-70
2022/09/10 04:55:01;;;;;;;21.90;14.93;;;15.10;99.90;;;;;;3059105;19;20019;-70
2022/09/10 04:56:05;;;;;;;28.05;15.82;;;15.10;99.90;;;;;;3059050;19;20003;-70
2022/09/10 04:57:07;;;;;;;25.73;15.38;;;15.30;99.90;;;;;;3058812;19;20023;-70
2022/09/10 04:58:12;;;;;;;20.77;14.93;;;15.10;99.90;;;;;;3059284;19;20128;-70
2022/09/10 04:59:13;;;;;;;26.92;15.68;;;15.20;99.90;;;;;;3058875;19;20015;-72
2022/09/10 05:00:18;;;;;;;25.00;15.30;;;15.20;99.90;;;;;;3058113;19;20379;-70
2022/09/10 05:01:19;;;;;;;26.23;16.55;;;15.20;99.90;;;;;;3058485;19;20017;-70
2022/09/10 05:02:23;;;;;;;23.27;16.27;;;15.20;99.90;;;;;;3058999;19;20038;-70
2022/09/10 05:03:24;;;;;;;23.17;15.00;;;15.10;99.90;;;;;;3058704;19;20011;-70
2022/09/10 05:04:28;;;;;;;24.90;15.18;;;15.00;99.90;;;;;;3058986;19;20049;-70
2022/09/10 05:05:30;;;;;;;23.25;14.93;;;15.20;99.90;;;;;;3058380;19;20018;-70
2022/09/10 05:06:34;;;;;;;23.33;14.80;;;15.30;99.90;;;;;;3060137;19;20018;-69
2022/09/10 05:07:37;;;;;;;23.35;15.48;;;15.10;99.90;;;;;;3058605;19;20014;-70
2022/09/10 05:08:43;;;;;;;26.27;15.93;;;15.30;99.90;;;;;;3059160;19;20076;-69
2022/09/10 05:09:44;;;;;;;23.67;16.67;;;15.70;99.90;;;;;;3058431;19;20014;-69
2022/09/10 05:10:48;;;;;;;21.23;14.90;;;15.00;99.90;;;;;;3057799;19;20037;-69
2022/09/10 05:11:50;;;;;;;23.73;15.13;;;15.00;99.90;;;;;;3059777;19;20011;-70
2022/09/10 05:12:53;;;;;;;23.77;15.20;;;15.20;99.90;;;;;;3058696;19;20422;-70
2022/09/10 05:13:55;;;;;;;22.65;14.80;;;15.30;99.90;;;;;;3058707;19;19999;-69
2022/09/10 05:14:59;;;;;;;28.25;16.85;;;15.10;99.90;;;;;;3058592;19;20022;-70
2022/09/10 05:16:00;;;;;;;27.60;15.15;;;15.20;99.90;;;;;;3058817;19;20339;-70
2022/09/10 05:17:05;;;;;;;25.48;16.33;;;15.20;99.90;;;;;;3058340;19;20002;-70
2022/09/10 05:18:06;;;;;;;21.10;14.93;;;15.10;99.90;;;;;;3058568;19;20030;-69
2022/09/10 05:19:16;;;;;;;28.05;15.63;;;15.00;99.90;;;;;;3058605;19;20006;-71
2022/09/10 05:20:20;;;;;;;24.30;15.45;;;15.30;99.90;;;;;;3058316;19;20006;-70
2022/09/10 05:21:22;;;;;;;28.75;15.35;;;16.00;99.90;;;;;;3058756;19;20027;-70
2022/09/10 05:22:26;;;;;;;26.45;15.35;;;15.20;99.90;;;;;;3058826;19;20471;-70
2022/09/10 05:23:27;;;;;;;22.90;14.95;;;15.20;99.90;;;;;;3060100;19;20014;-70
2022/09/10 05:24:34;;;;;;;22.17;15.10;;;15.10;99.90;;;;;;3060235;19;20046;-70
2022/09/10 05:25:36;;;;;;;24.67;15.15;;;15.10;99.90;;;;;;3058814;19;20007;-71
2022/09/10 05:26:40;;;;;;;22.80;15.07;;;15.20;99.90;;;;;;3059039;19;20016;-70
2022/09/10 05:27:42;;;;;;;25.92;15.32;;;15.20;99.90;;;;;;3058602;19;20002;-70
2022/09/10 05:28:46;;;;;;;24.75;16.17;;;15.20;99.90;;;;;;3058443;19;20017;-71